Time;durP1;ratioP1;P1;durP2;ratioP2;P2;SDS_P1;SDS_P2;PMS_P1;PMS_P2;Temp;Humidity;BMP_temperature;BMP_pressure;BME280_temperature;BME280_humidity;BME280_pressure;Samples;Min_cycle;Max_cycle;Signal;HPM_P1;HPM_P2
2022/06/23 00:02:24;;;;;;;5.40;5.10;;;;;;;17.85;60.35;100647.13;6044071;23;20023;-77
2022/06/23 00:04:57;;;;;;;5.13;4.93;;;;;;;17.96;60.54;100666.59;6031295;23;20085;-76
2022/06/23 00:07:28;;;;;;;5.37;5.17;;;;;;;17.28;61.41;100585.47;6020221;23;20027;-76
2022/06/23 00:09:57;;;;;;;5.75;5.50;;;;;;;17.80;61.52;100665.22;6020419;23;20727;-75
2022/06/23 00:12:35;;;;;;;5.53;5.32;;;;;;;17.74;61.62;100666.56;6007418;23;20097;-74
2022/06/23 00:15:01;;;;;;;5.93;5.63;;;;;;;17.68;62.26;100667.09;6023499;23;20023;-74
2022/06/23 00:17:37;;;;;;;5.25;5.05;;;;;;;17.62;62.28;100656.97;6028578;23;20014;-75
2022/06/23 00:20:18;;;;;;;6.00;5.70;;;;;;;17.57;63.25;100660.97;6027084;23;20027;-74
2022/06/23 00:23:01;;;;;;;5.03;4.82;;;;;;;17.03;63.29;100576.00;6023500;23;20022;-76
2022/06/23 00:25:37;;;;;;;5.22;5.03;;;;;;;17.47;63.77;100656.41;6036061;23;20027;-76
2022/06/23 00:28:04;;;;;;;6.35;6.05;;;;;;;17.17;66.65;100622.63;5994040;23;20529;-75
2022/06/23 00:30:39;;;;;;;5.20;5.00;;;;;;;16.95;66.90;100619.03;6026361;23;20014;-74
2022/06/23 00:33:21;;;;;;;6.57;6.28;;;;;;;17.13;68.33;100661.78;6026209;23;20023;-74
2022/06/23 00:35:50;;;;;;;5.13;4.93;;;;;;;17.06;69.21;100649.16;6006135;23;20314;-77
2022/06/23 00:38:31;;;;;;;5.05;4.85;;;;;;;16.98;69.32;100652.44;6025355;23;20865;-76
2022/06/23 00:41:00;;;;;;;6.40;6.10;;;;;;;16.35;69.90;100570.75;6030392;23;20085;-75
2022/06/23 00:43:28;;;;;;;5.40;5.03;;;;;;;16.34;69.32;100563.78;6023094;23;20025;-75
2022/06/23 00:46:09;;;;;;;6.38;6.07;;;;;;;16.85;69.15;100641.13;6026551;23;20027;-75
2022/06/23 00:48:44;;;;;;;4.97;4.78;;;;;;;16.83;69.08;100643.03;6043602;23;20076;-77
2022/06/23 00:51:29;;;;;;;5.45;5.25;;;;;;;16.82;69.20;100644.00;6031537;23;20059;-75
2022/06/23 00:54:03;;;;;;;6.13;5.82;;;;;;;16.34;70.03;100573.56;6001067;23;20026;-76
2022/06/23 00:57:09;;;;;;;5.13;4.88;;;;;;;16.79;69.71;100646.88;6033504;23;20018;-76
2022/06/23 00:59:40;;;;;;;5.10;4.90;;;;;;;16.52;70.59;100605.69;6027024;23;20017;-77
2022/06/23 01:02:17;;;;;;;6.40;6.10;;;;;;;16.81;70.13;100637.00;6035533;23;20105;-74
2022/06/23 01:04:57;;;;;;;5.05;4.85;;;;;;;16.61;70.84;100604.97;5990390;23;20035;-74
2022/06/23 01:07:51;;;;;;;5.20;5.00;;;;;;;16.75;70.86;100643.63;5996696;23;20016;-77
2022/06/23 01:10:28;;;;;;;5.18;4.97;;;;;;;15.80;70.09;100503.59;5998514;23;20034;-79
2022/06/23 01:13:01;;;;;;;5.85;5.57;;;;;;;16.41;70.19;100597.75;6024495;23;20027;-73
2022/06/23 01:15:50;;;;;;;5.20;5.00;;;;;;;16.07;70.43;100544.75;6013869;23;20019;-76
2022/06/23 01:18:30;;;;;;;5.57;5.28;;;;;;;16.18;70.57;100563.31;6000981;23;20027;-74
2022/06/23 01:21:21;;;;;;;6.38;6.07;;;;;;;16.20;70.38;100564.03;5999612;23;20472;-76
2022/06/23 01:24:26;;;;;;;5.00;4.80;;;;;;;16.65;70.43;100650.59;6019004;23;20128;-77
2022/06/23 01:27:13;;;;;;;6.50;5.90;;;;;;;16.64;71.58;100652.44;5992342;23;20035;-75
2022/06/23 01:29:44;;;;;;;5.10;4.90;;;;;;;16.28;71.32;100596.06;6030561;23;20479;-74
2022/06/23 01:32:27;;;;;;;5.00;4.80;;;;;;;16.53;71.44;100632.03;6022790;23;20027;-76
2022/06/23 01:35:01;;;;;;;5.10;4.70;;;;;;;16.49;72.33;100629.78;6029862;23;20504;-75
2022/06/23 01:37:40;;;;;;;5.20;5.00;;;;;;;16.60;73.41;100647.47;5983881;23;20604;-75
2022/06/23 01:40:23;;;;;;;6.85;6.55;;;;;;;16.53;74.59;100649.75;6013476;23;20585;-74
2022/06/23 01:43:10;;;;;;;4.97;4.78;;;;;;;16.05;75.35;100578.44;6002230;23;20762;-74
2022/06/23 01:45:43;;;;;;;5.20;5.00;;;;;;;16.47;73.94;100639.66;6024804;23;20040;-74
2022/06/23 01:48:10;;;;;;;5.55;5.25;;;;;;;16.42;74.35;100652.41;5998211;23;20018;-74
2022/06/23 01:50:41;;;;;;;5.30;5.00;;;;;;;15.97;74.85;100586.16;6032056;23;20027;-75
2022/06/23 01:53:14;;;;;;;4.97;4.78;;;;;;;15.60;75.31;100536.00;6021293;23;20063;-74
2022/06/23 01:55:59;;;;;;;5.45;5.18;;;;;;;15.71;75.34;100558.03;6031006;23;20022;-75
2022/06/23 01:58:33;;;;;;;5.00;4.80;;;;;;;16.33;75.03;100664.53;6008402;23;20019;-74
2022/06/23 02:01:02;;;;;;;6.70;6.40;;;;;;;15.06;75.17;100456.28;6028593;23;20027;-75
2022/06/23 02:03:37;;;;;;;5.00;4.80;;;;;;;16.04;75.07;100632.38;6034110;23;20029;-75
2022/06/23 02:06:26;;;;;;;6.50;6.20;;;;;;;16.06;75.40;100627.81;6025520;23;20043;-76
2022/06/23 02:09:15;;;;;;;6.20;5.93;;;;;;;16.31;76.17;100663.81;6022929;23;20470;-73
2022/06/23 02:11:51;;;;;;;4.88;4.68;;;;;;;15.40;75.73;100525.13;6032063;23;20026;-74
2022/06/23 02:14:39;;;;;;;5.80;5.40;;;;;;;16.32;75.48;100655.75;6029097;23;20007;-74
2022/06/23 02:17:11;;;;;;;6.60;6.30;;;;;;;16.32;76.39;100654.94;6027313;23;20014;-71
2022/06/23 02:19:44;;;;;;;5.45;5.15;;;;;;;16.31;75.57;100663.81;6034997;23;20432;-75
2022/06/23 02:22:18;;;;;;;5.30;5.00;;;;;;;15.51;76.97;100545.47;6024829;23;20007;-73
2022/06/23 02:24:49;;;;;;;5.10;4.90;;;;;;;16.16;76.66;100665.84;6009925;23;20027;-72
2022/06/23 02:27:22;;;;;;;5.00;4.80;;;;;;;15.68;76.14;100602.41;6005271;23;20350;-73
2022/06/23 02:30:00;;;;;;;5.32;5.03;;;;;;;15.08;76.81;100499.28;6033075;23;20031;-74
2022/06/23 02:32:27;;;;;;;5.30;5.10;;;;;;;16.05;77.68;100671.09;6032697;23;20080;-73
2022/06/23 02:35:08;;;;;;;6.20;5.90;;;;;;;14.75;77.56;100448.00;6007428;23;20073;-75
2022/06/23 02:37:55;;;;;;;5.38;5.05;;;;;;;16.07;77.11;100655.94;6033918;23;20480;-74
2022/06/23 02:40:29;;;;;;;4.95;4.75;;;;;;;15.82;77.51;100618.13;6022653;23;20035;-74
2022/06/23 02:43:31;;;;;;;6.72;6.40;;;;;;;15.23;78.16;100525.53;5995506;23;20058;-72
2022/06/23 02:46:15;;;;;;;6.80;6.50;;;;;;;16.04;78.08;100666.78;6025288;23;20495;-73
2022/06/23 02:48:53;;;;;;;5.10;4.90;;;;;;;15.97;77.98;100663.75;6037718;23;20066;-73
2022/06/23 02:51:43;;;;;;;5.10;4.90;;;;;;;14.93;78.50;100497.78;6025385;23;20019;-73
2022/06/23 02:54:23;;;;;;;5.30;5.10;;;;;;;15.47;78.44;100589.81;6020755;23;20495;-74
2022/06/23 02:57:19;;;;;;;5.13;4.93;;;;;;;15.84;79.27;100666.47;6006267;23;20047;-74
2022/06/23 02:59:59;;;;;;;5.40;5.10;;;;;;;15.24;80.08;100595.97;6022348;23;20023;-75
2022/06/23 03:02:33;;;;;;;5.10;4.80;;;;;;;15.61;81.11;100644.31;6023930;23;20070;-77
2022/06/23 03:05:20;;;;;;;6.38;6.07;;;;;;;15.46;81.52;100619.88;6028193;23;20070;-72
2022/06/23 03:08:16;;;;;;;4.90;4.70;;;;;;;15.74;81.34;100673.41;6027788;23;20361;-73
2022/06/23 03:10:53;;;;;;;5.32;5.10;;;;;;;15.66;81.64;100651.94;5997033;23;20021;-74
2022/06/23 03:13:34;;;;;;;5.10;4.90;;;;;;;14.75;81.32;100489.41;6030105;23;20207;-74
2022/06/23 03:16:25;;;;;;;6.45;6.15;;;;;;;15.30;81.54;100585.78;6025158;23;20186;-75
2022/06/23 03:19:14;;;;;;;5.70;5.43;;;;;;;15.24;80.53;100588.03;6026607;23;20542;-75
2022/06/23 03:21:47;;;;;;;4.80;4.60;;;;;;;15.76;79.91;100655.63;6030588;23;20019;-72
2022/06/23 03:24:44;;;;;;;4.95;4.75;;;;;;;15.89;80.15;100685.47;6024257;23;20654;-74
2022/06/23 03:27:45;;;;;;;5.65;5.43;;;;;;;15.70;79.59;100648.13;5979056;23;20060;-74
2022/06/23 03:30:30;;;;;;;5.20;5.00;;;;;;;15.99;79.95;100672.41;6014185;23;20037;-75
2022/06/23 03:33:07;;;;;;;6.22;5.93;;;;;;;15.56;79.30;100588.28;6023061;23;20010;-74
2022/06/23 03:35:42;;;;;;;5.20;4.90;;;;;;;15.94;79.08;100645.47;6004330;23;20116;-74
2022/06/23 03:41:36;;;;;;;5.95;5.65;;;;;;;16.15;80.13;100680.03;6037601;23;20348;-76
2022/06/23 03:44:15;;;;;;;6.50;6.20;;;;;;;16.06;79.70;100635.75;6027135;23;20377;-77
2022/06/23 03:47:01;;;;;;;5.35;5.15;;;;;;;16.03;78.83;100620.09;6005383;23;20035;-74
2022/06/23 03:49:36;;;;;;;4.82;4.63;;;;;;;16.53;78.36;100678.91;6018194;23;20151;-76
2022/06/23 03:52:14;;;;;;;4.90;4.70;;;;;;;16.34;78.46;100623.88;6008387;23;20098;-74
2022/06/23 03:54:48;;;;;;;5.85;5.47;;;;;;;16.67;78.09;100665.41;6033092;23;20041;-76
2022/06/23 03:57:25;;;;;;;4.90;4.70;;;;;;;16.92;77.63;100674.13;6031755;23;20010;-76
2022/06/23 04:00:00;;;;;;;6.13;5.82;;;;;;;17.04;76.59;100673.16;6029397;23;20092;-76
2022/06/23 04:02:34;;;;;;;5.30;5.00;;;;;;;16.83;75.53;100619.19;6003086;23;20569;-75
2022/06/23 04:05:15;;;;;;;6.13;5.82;;;;;;;16.93;75.61;100614.84;6025997;23;20046;-74
2022/06/23 04:07:56;;;;;;;5.15;4.95;;;;;;;17.48;75.16;100673.16;6023362;23;20023;-74
2022/06/23 04:10:33;;;;;;;5.28;4.97;;;;;;;17.48;73.77;100642.19;5994274;23;21169;-75
2022/06/23 04:13:15;;;;;;;6.40;6.10;;;;;;;17.89;71.76;100573.38;6028869;23;20082;-75
2022/06/23 04:15:43;;;;;;;6.22;5.20;;;;;;;19.27;68.34;100648.22;5995755;23;20019;-75
2022/06/23 04:18:19;;;;;;;5.30;5.10;;;;;;;20.07;64.20;100664.94;6029928;23;20021;-76
2022/06/23 04:20:54;;;;;;;5.47;5.18;;;;;;;20.47;61.45;100637.19;6025620;23;20019;-74
2022/06/23 04:23:33;;;;;;;5.60;5.30;;;;;;;20.99;59.11;100639.34;6022950;23;20014;-74
2022/06/23 04:26:14;;;;;;;6.65;6.35;;;;;;;21.50;55.18;100670.78;6016436;23;20088;-74
2022/06/23 04:28:47;;;;;;;6.28;5.80;;;;;;;21.76;54.86;100670.03;6028901;23;20470;-76
2022/06/23 04:31:18;;;;;;;6.05;5.68;;;;;;;21.61;54.07;100618.16;5992013;23;20414;-76
2022/06/23 04:33:47;;;;;;;5.72;5.43;;;;;;;21.27;52.00;100512.06;6027642;23;20626;-74
2022/06/23 04:36:23;;;;;;;5.70;5.40;;;;;;;22.12;51.09;100589.81;6027141;23;20038;-77
2022/06/23 04:39:00;;;;;;;5.80;5.50;;;;;;;23.13;49.93;100689.97;6023152;23;20025;-78
2022/06/23 04:41:53;;;;;;;5.53;5.32;;;;;;;23.23;48.18;100659.41;6003706;23;20016;-75
2022/06/23 04:44:28;;;;;;;5.70;5.40;;;;;;;23.47;46.92;100660.44;5820771;23;20003;-75
2022/06/23 04:47:12;;;;;;;6.47;6.07;;;;;;;23.62;46.90;100671.34;5995717;23;20082;-74
2022/06/23 04:49:50;;;;;;;6.00;5.70;;;;;;;24.14;46.49;100683.63;6023926;23;20385;-76
2022/06/23 04:52:32;;;;;;;6.20;5.90;;;;;;;24.42;45.16;100684.91;6019852;23;20443;-73
2022/06/23 04:55:11;;;;;;;6.75;6.45;;;;;;;24.36;44.04;100628.44;5999135;23;20172;-75
2022/06/23 04:57:49;;;;;;;6.00;5.70;;;;;;;24.96;43.75;100672.69;6031536;23;20226;-75
2022/06/23 05:00:42;;;;;;;5.90;5.60;;;;;;;24.99;43.26;100693.81;6017948;23;20109;-76
2022/06/23 05:03:34;;;;;;;7.07;6.78;;;;;;;24.75;44.58;100692.06;5977354;23;20294;-77
2022/06/23 05:06:13;;;;;;;6.75;6.45;;;;;;;23.85;44.36;100632.22;6020112;23;20401;-78
2022/06/23 05:08:44;;;;;;;5.80;5.50;;;;;;;24.73;44.25;100684.16;6027340;23;20038;-76
2022/06/23 05:11:38;;;;;;;6.20;5.90;;;;;;;24.82;43.05;100693.88;6026819;23;20173;-74
2022/06/23 05:14:14;;;;;;;6.82;6.53;;;;;;;25.00;43.74;100690.97;6002805;23;20022;-78
2022/06/23 05:16:45;;;;;;;5.80;5.50;;;;;;;24.60;43.80;100636.44;6030454;23;20472;-78
2022/06/23 05:19:25;;;;;;;5.80;5.50;;;;;;;24.13;42.95;100513.84;6034947;23;20042;-73
2022/06/23 05:21:56;;;;;;;6.07;5.78;;;;;;;25.70;41.95;100699.13;6023545;23;20015;-76
2022/06/23 05:24:27;;;;;;;5.85;5.55;;;;;;;25.94;40.88;100699.00;6020444;23;20025;-75
2022/06/23 05:27:02;;;;;;;6.40;6.10;;;;;;;25.58;40.34;100567.03;6029960;23;20464;-80
2022/06/23 05:29:31;;;;;;;5.80;5.50;;;;;;;26.46;39.27;100698.16;6002166;23;20023;-76
2022/06/23 05:32:04;;;;;;;7.25;6.90;;;;;;;25.59;41.12;100658.22;6027388;23;20073;-77
2022/06/23 05:34:34;;;;;;;6.07;5.78;;;;;;;26.22;40.71;100688.50;6036338;23;20014;-77
2022/06/23 05:37:29;;;;;;;7.13;6.72;;;;;;;26.31;39.95;100685.72;6028526;23;20006;-78
2022/06/23 05:40:22;;;;;;;6.78;6.38;;;;;;;26.51;39.66;100688.72;6014204;23;20023;-77
2022/06/23 05:42:51;;;;;;;6.05;5.75;;;;;;;26.09;39.50;100671.31;6033285;23;20031;-78
2022/06/23 05:45:25;;;;;;;5.90;5.60;;;;;;;25.61;40.51;100653.50;6011752;23;20066;-76
2022/06/23 05:47:53;;;;;;;6.07;5.78;;;;;;;26.43;39.62;100671.63;6031163;23;20034;-78
2022/06/23 05:50:43;;;;;;;5.95;5.65;;;;;;;26.67;39.50;100702.84;6011181;23;20022;-76
2022/06/23 05:53:20;;;;;;;6.68;6.38;;;;;;;26.89;39.09;100667.91;6016577;23;20386;-77
2022/06/23 05:55:53;;;;;;;6.60;6.30;;;;;;;26.97;40.02;100705.53;6022494;23;20082;-76
2022/06/23 05:58:44;;;;;;;6.00;5.70;;;;;;;26.30;40.26;100635.59;6021035;23;20029;-76
2022/06/23 06:01:19;;;;;;;6.45;6.15;;;;;;;26.74;40.33;100694.88;6022243;23;20625;-77
2022/06/23 06:03:53;;;;;;;6.30;6.00;;;;;;;26.73;40.91;100690.50;6024962;23;20131;-76
2022/06/23 06:06:20;;;;;;;5.82;5.53;;;;;;;26.98;40.16;100634.47;6026150;23;20025;-74
2022/06/23 06:11:46;;;;;;;6.03;5.72;;;;;;;27.25;40.11;100664.44;6026371;23;20018;-74
2022/06/23 06:14:15;;;;;;;5.88;5.57;;;;;;;27.77;39.89;100694.84;6036711;23;20021;-75
2022/06/23 06:16:42;;;;;;;6.00;5.70;;;;;;;27.56;40.46;100656.03;6005081;23;20094;-77
2022/06/23 06:19:21;;;;;;;6.75;6.45;;;;;;;26.95;41.77;100640.22;6029797;23;20102;-75
2022/06/23 06:21:51;;;;;;;6.13;5.70;;;;;;;27.10;41.99;100674.38;5998004;23;20026;-77
2022/06/23 06:24:46;;;;;;;5.95;5.65;;;;;;;27.53;41.04;100690.66;6036780;23;20083;-77
2022/06/23 06:27:13;;;;;;;6.20;5.90;;;;;;;27.24;42.07;100690.56;6022848;23;20455;-76
2022/06/23 06:29:43;;;;;;;6.00;5.70;;;;;;;26.78;42.78;100682.72;6001541;23;20103;-75
2022/06/23 06:32:37;;;;;;;6.60;6.30;;;;;;;26.71;44.03;100695.22;5997296;23;20116;-74
2022/06/23 06:35:24;;;;;;;7.45;7.05;;;;;;;26.24;45.86;100699.91;6027977;23;20085;-76
2022/06/23 06:37:56;;;;;;;10.52;6.38;;;;;;;26.24;46.17;100699.03;6025406;23;20108;-74
2022/06/23 06:40:22;;;;;;;6.00;5.70;;;;;;;25.93;45.99;100685.72;6031590;23;20021;-76
2022/06/23 06:42:56;;;;;;;7.22;6.60;;;;;;;25.61;48.19;100695.69;6022826;23;20480;-78
2022/06/23 06:45:29;;;;;;;5.90;5.60;;;;;;;25.14;48.70;100621.38;6032190;23;20511;-75
2022/06/23 06:47:56;;;;;;;6.35;6.05;;;;;;;25.48;48.56;100669.41;6004560;23;20038;-77
2022/06/23 06:50:29;;;;;;;6.30;5.97;;;;;;;25.57;49.60;100699.75;6027946;23;20035;-73
2022/06/23 06:52:58;;;;;;;6.95;6.57;;;;;;;25.03;49.02;100619.94;6028799;23;20061;-74
2022/06/23 06:55:32;;;;;;;6.80;6.40;;;;;;;25.45;49.43;100686.69;6027698;23;20094;-77
2022/06/23 06:58:57;;;;;;;7.25;6.95;;;;;;;25.64;50.24;100698.03;6008364;23;20078;-75
2022/06/23 07:01:25;;;;;;;5.95;5.63;;;;;;;25.22;49.77;100611.47;5991903;23;20270;-76
2022/06/23 07:03:54;;;;;;;6.05;5.75;;;;;;;25.77;49.30;100694.72;6022187;23;20355;-78
2022/06/23 07:06:33;;;;;;;6.03;5.72;;;;;;;25.24;49.71;100635.47;6024324;23;20389;-75
2022/06/23 07:09:43;;;;;;;7.03;6.72;;;;;;;25.50;49.93;100683.50;6044092;18;20518;-70
2022/06/23 07:12:18;;;;;;;6.45;6.10;;;;;;;25.57;49.80;100686.31;6042507;23;20699;-72
2022/06/23 07:15:05;;;;;;;6.05;5.75;;;;;;;25.42;50.46;100679.00;6024508;23;20109;-70
2022/06/23 07:17:46;;;;;;;6.07;5.78;;;;;;;25.03;50.11;100644.13;6054872;23;20047;-71
2022/06/23 07:20:25;;;;;;;6.80;6.40;;;;;;;25.51;49.68;100689.72;6028756;23;20033;-71
2022/06/23 07:23:05;;;;;;;6.50;6.18;;;;;;;25.76;50.17;100691.22;6036957;23;20035;-71
2022/06/23 07:25:42;;;;;;;6.07;5.78;;;;;;;25.92;49.23;100698.34;6021700;23;20031;-71
2022/06/23 07:28:12;;;;;;;6.85;6.55;;;;;;;25.80;50.29;100688.97;6049894;23;20022;-71
2022/06/23 07:30:47;;;;;;;5.90;5.60;;;;;;;25.91;50.84;100695.84;6026443;23;20369;-72
2022/06/23 07:33:29;;;;;;;6.00;5.70;;;;;;;25.66;50.21;100626.94;6028206;23;20026;-70
2022/06/23 07:36:05;;;;;;;6.75;6.35;;;;;;;26.23;49.81;100679.38;6042337;23;20778;-69
2022/06/23 07:38:41;;;;;;;6.10;5.80;;;;;;;26.19;50.04;100674.56;6039799;23;20071;-71
2022/06/23 07:41:44;;;;;;;5.97;5.68;;;;;;;26.21;51.77;100683.28;6050892;23;20106;-71
2022/06/23 07:44:40;;;;;;;5.93;5.63;;;;;;;26.28;50.32;100651.97;6012606;23;20474;-73
2022/06/23 07:47:07;;;;;;;7.30;6.90;;;;;;;26.47;50.65;100669.41;6006339;23;20046;-72
2022/06/23 07:49:34;;;;;;;6.40;6.10;;;;;;;26.72;50.57;100677.22;6028714;23;20064;-69
2022/06/23 07:52:11;;;;;;;7.80;7.40;;;;;;;26.83;51.04;100674.06;6008667;23;20067;-66
2022/06/23 07:54:39;;;;;;;6.28;5.78;;;;;;;26.56;49.96;100611.78;6054032;23;20022;-69
2022/06/23 07:57:05;;;;;;;6.82;6.50;;;;;;;26.81;50.38;100678.78;6029737;23;20127;-68
2022/06/23 07:59:41;;;;;;;6.97;6.35;;;;;;;26.57;51.18;100666.44;6052899;23;20100;-68
2022/06/23 08:02:18;;;;;;;8.30;7.80;;;;;;;26.45;51.50;100660.66;6023620;23;20052;-68
2022/06/23 08:05:17;;;;;;;6.63;6.30;;;;;;;26.55;50.74;100672.00;6059986;23;20076;-68
2022/06/23 08:07:44;;;;;;;7.07;5.72;;;;;;;26.49;50.54;100679.97;6025214;23;20026;-69
2022/06/23 08:10:18;;;;;;;6.68;6.38;;;;;;;26.39;51.70;100673.00;6044597;23;20128;-71
2022/06/23 08:12:55;;;;;;;6.15;5.85;;;;;;;26.06;51.54;100606.09;6048683;23;20077;-70
2022/06/23 08:18:40;;;;;;;6.75;6.35;;;;;;;25.81;51.67;100505.16;6055668;23;20213;-71
2022/06/23 08:21:10;;;;;;;7.88;7.47;;;;;;;26.72;50.52;100653.84;6012206;23;20618;-67
2022/06/23 08:23:52;;;;;;;6.10;5.75;;;;;;;26.67;48.71;100637.41;6045556;23;20030;-67
2022/06/23 08:26:22;;;;;;;6.50;6.20;;;;;;;26.50;50.20;100643.97;6028732;23;20090;-67
2022/06/23 08:28:53;;;;;;;6.10;5.80;;;;;;;26.86;49.39;100657.50;6034486;23;20038;-72
2022/06/23 08:31:20;;;;;;;6.15;5.85;;;;;;;27.20;49.99;100669.53;6056921;23;20014;-67
2022/06/23 08:34:07;;;;;;;7.50;7.10;;;;;;;27.24;49.33;100660.91;6045782;23;20167;-67
2022/06/23 08:36:43;;;;;;;6.85;6.50;;;;;;;27.20;47.80;100642.56;6028185;23;20046;-67
2022/06/23 08:39:25;;;;;;;6.88;6.50;;;;;;;27.41;48.89;100663.38;6046435;23;20022;-67
2022/06/23 08:42:00;;;;;;;7.22;6.20;;;;;;;27.58;47.84;100669.34;5993118;23;20019;-66
2022/06/23 08:45:09;;;;;;;6.55;6.25;;;;;;;26.36;48.91;100465.34;6044037;23;20557;-71
2022/06/23 08:47:52;;;;;;;6.30;6.00;;;;;;;27.87;48.36;100670.22;6033017;23;20702;-70
2022/06/23 08:50:23;;;;;;;;;;;;;;;28.02;48.04;100662.91;6048631;23;20025;-73
2022/06/23 08:53:00;;;;;;;6.32;5.93;;;;;;;27.95;47.85;100665.56;6036673;23;20413;-73
2022/06/23 08:55:53;;;;;;;6.68;5.95;;;;;;;28.21;47.13;100666.78;6048878;23;20557;-72
2022/06/23 08:58:23;;;;;;;6.57;6.28;;;;;;;28.21;47.14;100670.31;6032552;23;20080;-67
2022/06/23 09:00:58;;;;;;;6.43;6.13;;;;;;;28.28;46.00;100653.34;6043262;23;20086;-66
2022/06/23 09:03:43;;;;;;;6.68;6.30;;;;;;;28.34;44.66;100652.53;6043632;23;20179;-67
2022/06/23 09:06:32;;;;;;;7.07;6.65;;;;;;;28.56;44.37;100656.03;6013966;23;20251;-67
2022/06/23 09:09:04;;;;;;;7.45;7.03;;;;;;;28.59;43.87;100653.75;6046321;23;20018;-67
2022/06/23 09:11:33;;;;;;;;;;;;;;;28.69;44.26;100656.09;6039360;23;20069;-67
2022/06/23 09:14:22;;;;;;;7.47;7.07;;;;;;;28.93;42.83;100652.06;6047748;23;20274;-67
2022/06/23 09:17:40;;;;;;;6.68;6.18;;;;;;;28.97;41.31;100647.91;6045571;23;20030;-66
2022/06/23 09:20:35;;;;;;;7.68;7.28;;;;;;;29.01;41.37;100648.34;5996546;23;20050;-70
2022/06/23 09:23:48;;;;;;;7.75;7.35;;;;;;;28.98;40.33;100627.13;6019510;23;20088;-70
2022/06/23 09:26:20;;;;;;;;;;;;;;;29.21;41.32;100651.97;6040552;23;20018;-67
2022/06/23 09:28:58;;;;;;;6.43;6.03;;;;;;;29.15;39.94;100636.56;6023991;23;19914;-67
2022/06/23 09:31:53;;;;;;;6.15;5.78;;;;;;;29.13;40.28;100637.81;6043255;23;20428;-67
2022/06/23 09:34:25;;;;;;;6.10;5.80;;;;;;;28.99;40.22;100635.03;6041188;23;20125;-70
2022/06/23 09:37:19;;;;;;;6.85;6.45;;;;;;;29.20;41.34;100630.53;6023123;23;20511;-66
2022/06/23 09:40:18;;;;;;;6.68;6.18;;;;;;;29.32;39.35;100636.19;6045122;23;20057;-67
2022/06/23 09:42:54;;;;;;;6.90;6.50;;;;;;;29.29;39.81;100623.91;6047661;23;20187;-66
2022/06/23 09:45:59;;;;;;;6.65;6.22;;;;;;;29.46;39.66;100629.75;6019669;23;20033;-66
2022/06/23 09:48:40;;;;;;;6.72;6.32;;;;;;;29.33;38.01;100627.88;6036864;23;20086;-67
2022/06/23 09:51:26;;;;;;;6.65;6.35;;;;;;;29.50;40.59;100627.47;6019278;23;20018;-68
2022/06/23 09:54:07;;;;;;;6.70;6.35;;;;;;;29.64;38.70;100624.56;6039644;23;20022;-66
2022/06/23 09:56:42;;;;;;;6.00;5.70;;;;;;;29.36;39.78;100578.78;6017090;23;20053;-71
2022/06/23 09:59:11;;;;;;;6.63;6.03;;;;;;;29.82;38.76;100610.44;5994047;23;20042;-71
2022/06/23 10:02:01;;;;;;;7.28;6.68;;;;;;;30.10;38.46;100609.38;6022935;23;20050;-70
2022/06/23 10:04:43;;;;;;;6.50;6.18;;;;;;;30.26;38.94;100637.88;6049572;23;20014;-70
2022/06/23 10:07:37;;;;;;;7.15;6.75;;;;;;;29.23;37.94;100463.38;6044555;23;20512;-67
2022/06/23 10:10:16;;;;;;;7.47;7.07;;;;;;;30.44;37.87;100615.56;6038469;23;20081;-66
2022/06/23 10:13:12;;;;;;;6.63;6.22;;;;;;;30.44;38.32;100609.31;6038101;23;20049;-66
2022/06/23 10:16:05;;;;;;;6.07;5.78;;;;;;;30.13;37.04;100568.34;6051371;23;20047;-68
2022/06/23 10:18:54;;;;;;;6.22;5.93;;;;;;;30.38;37.55;100608.28;6027051;23;20051;-68
2022/06/23 10:21:39;;;;;;;6.78;6.35;;;;;;;30.55;36.27;100617.63;6041752;23;20019;-66
2022/06/23 10:24:30;;;;;;;7.60;7.20;;;;;;;30.48;36.17;100614.09;6017786;23;20102;-67
2022/06/23 10:27:15;;;;;;;7.07;6.70;;;;;;;30.47;35.78;100617.00;6048005;23;20086;-67
2022/06/23 10:30:07;;;;;;;6.35;6.05;;;;;;;30.42;36.37;100615.78;6036138;23;20030;-72
2022/06/23 10:33:21;;;;;;;7.10;6.70;;;;;;;30.74;36.35;100609.63;6045253;23;20018;-71
2022/06/23 10:35:54;;;;;;;6.20;5.90;;;;;;;31.05;36.04;100614.28;6024672;23;20054;-71
2022/06/23 10:38:33;;;;;;;6.22;5.90;;;;;;;31.13;35.45;100607.75;6049380;23;20119;-70
2022/06/23 10:41:18;;;;;;;6.40;6.10;;;;;;;31.09;34.44;100603.84;6039638;23;20658;-71
2022/06/23 10:43:56;;;;;;;7.07;6.68;;;;;;;31.08;33.55;100604.91;6056154;23;20049;-71
2022/06/23 10:46:40;;;;;;;6.63;6.25;;;;;;;30.70;34.65;100584.00;6056215;23;20014;-71
2022/06/23 10:49:24;;;;;;;5.90;5.60;;;;;;;30.64;34.17;100610.06;6057336;23;20034;-67
2022/06/23 10:52:13;;;;;;;6.38;6.07;;;;;;;29.91;35.80;100464.97;6021987;23;20054;-67
2022/06/23 10:55:10;;;;;;;6.43;6.05;;;;;;;30.59;35.23;100599.91;6057939;23;20032;-68
2022/06/23 10:58:14;;;;;;;6.07;5.78;;;;;;;30.71;35.51;100555.84;6045947;23;20046;-67
2022/06/23 11:01:09;;;;;;;6.32;6.03;;;;;;;30.92;35.38;100565.59;6054728;23;20078;-67
2022/06/23 11:04:03;;;;;;;6.15;5.80;;;;;;;31.50;34.54;100594.41;6034339;23;20046;-67
2022/06/23 11:06:46;;;;;;;7.25;6.85;;;;;;;31.35;33.86;100562.16;6049854;23;20014;-67
2022/06/23 11:09:24;;;;;;;7.68;7.18;;;;;;;31.38;35.14;100581.53;6019755;23;20070;-68
2022/06/23 11:12:10;;;;;;;6.45;6.07;;;;;;;31.17;34.86;100582.72;6059752;23;20179;-66
2022/06/23 11:14:54;;;;;;;6.30;6.00;;;;;;;31.11;33.78;100588.19;6050612;23;20581;-68
2022/06/23 11:17:37;;;;;;;7.38;6.97;;;;;;;30.89;34.23;100572.28;6045302;23;20464;-68
2022/06/23 11:20:09;;;;;;;7.53;7.10;;;;;;;30.90;35.22;100570.38;6052538;23;20048;-66
2022/06/23 11:22:54;;;;;;;6.13;5.82;;;;;;;31.01;34.50;100581.38;6040933;23;20033;-67
2022/06/23 11:25:43;;;;;;;6.35;6.05;;;;;;;30.86;34.64;100575.38;6026748;23;20254;-67
2022/06/23 11:28:31;;;;;;;6.30;6.00;;;;;;;31.24;34.94;100579.97;6053188;23;20197;-68
2022/06/23 11:31:16;;;;;;;6.90;6.60;;;;;;;31.36;34.47;100570.06;6051967;23;20022;-68
2022/06/23 11:33:47;;;;;;;6.70;6.30;;;;;;;30.71;34.87;100437.50;6050871;23;20026;-68
2022/06/23 11:36:26;;;;;;;6.10;5.80;;;;;;;31.67;34.13;100565.66;6030934;23;20204;-71
2022/06/23 11:39:25;;;;;;;6.97;6.57;;;;;;;31.78;34.24;100564.94;6024570;23;20034;-71
2022/06/23 11:42:05;;;;;;;6.32;6.03;;;;;;;31.97;36.08;100559.53;6026467;23;20711;-67
2022/06/23 11:45:00;;;;;;;6.28;5.97;;;;;;;31.33;34.29;100434.94;6038419;23;20352;-68
2022/06/23 11:47:43;;;;;;;6.25;5.95;;;;;;;32.42;33.17;100570.13;6052454;23;20106;-68
2022/06/23 11:50:26;;;;;;;7.38;6.90;;;;;;;31.82;33.30;100556.34;6025358;23;20728;-68
2022/06/23 11:53:33;;;;;;;7.40;7.00;;;;;;;31.73;35.57;100540.38;6045823;23;20663;-68
2022/06/23 11:56:08;;;;;;;7.50;7.00;;;;;;;32.04;34.55;100537.78;6017107;23;20229;-67
2022/06/23 11:58:58;;;;;;;6.30;6.00;;;;;;;32.02;33.78;100540.72;6042197;23;20585;-67
2022/06/23 12:01:25;;;;;;;6.57;6.18;;;;;;;32.18;33.45;100523.81;6009474;23;20070;-68
2022/06/23 12:04:04;;;;;;;6.10;5.80;;;;;;;32.31;34.96;100539.09;6048064;23;20025;-68
2022/06/23 12:07:12;;;;;;;6.20;5.90;;;;;;;32.64;32.22;100543.34;6010778;23;20077;-67
2022/06/23 12:10:04;;;;;;;6.22;5.93;;;;;;;32.75;33.55;100533.56;6026459;23;20246;-68
2022/06/23 12:12:35;;;;;;;6.35;5.95;;;;;;;32.59;32.85;100529.59;6046243;23;20011;-68
2022/06/23 12:15:05;;;;;;;7.40;7.00;;;;;;;32.35;33.40;100534.88;6040921;23;20156;-68
2022/06/23 12:17:49;;;;;;;6.32;6.03;;;;;;;32.61;33.01;100530.19;6044554;23;20030;-69
2022/06/23 12:20:25;;;;;;;6.18;5.82;;;;;;;32.77;33.10;100532.25;6025933;23;20593;-68
2022/06/23 12:23:12;;;;;;;6.97;6.63;;;;;;;32.81;33.17;100532.63;6039001;23;20081;-67
2022/06/23 12:26:06;;;;;;;6.00;5.70;;;;;;;33.19;33.33;100521.41;6028966;23;20930;-67
2022/06/23 12:28:52;;;;;;;6.78;6.38;;;;;;;33.39;33.72;100521.06;6048147;23;20045;-66
2022/06/23 12:31:28;;;;;;;6.28;5.97;;;;;;;33.56;33.30;100507.59;5993447;23;20030;-67
2022/06/23 12:34:05;;;;;;;7.32;6.93;;;;;;;33.54;32.59;100517.06;6050962;23;20021;-68
2022/06/23 12:36:35;;;;;;;6.53;6.22;;;;;;;33.16;33.31;100513.72;6047107;23;20081;-67
2022/06/23 12:39:09;;;;;;;6.38;6.00;;;;;;;33.07;32.56;100506.94;6058165;23;20022;-68